Terminal Aerodrome Forecast
Issued by NWS St Louis, MO

Home | Current Version | Previous Version | Text Only | Print | Product List | Glossary On
Versions: 1 2 3 4 5 6 7 8 9 10 11 12 13 14 15 16 17 18
000
FTUS43 KLSX 190142 AAA
TAFCOU
TAF AMD
KCOU 190142Z 1902/1924 22006KT P6SM VCTS BKN050CB
      TEMPO 1902/1904 VRB15G30KT 3SM TSRA BKN030CB
     FM190500 VRB04KT P6SM FEW040 SCT250
     FM190900 VRB04KT 4SM BR SKC
     FM191400 27007KT P6SM SKC=

USA.gov is the U.S. government's official web portal to all federal, state and local government web resources and services.